sensor_id;sensor_type;location;lat;lon;timestamp;P1;durP1;ratioP1;P2;durP2;ratioP2
40675;SDS011;26359;48.750;9.314;2023-11-19T00:01:55;11.02;;;10.23;;
40675;SDS011;26359;48.750;9.314;2023-11-19T00:04:22;14.80;;;13.60;;
40675;SDS011;26359;48.750;9.314;2023-11-19T00:06:47;12.05;;;11.13;;
40675;SDS011;26359;48.750;9.314;2023-11-19T00:09:13;9.25;;;8.52;;
40675;SDS011;26359;48.750;9.314;2023-11-19T00:11:41;8.10;;;7.50;;
40675;SDS011;26359;48.750;9.314;2023-11-19T00:14:07;8.43;;;7.60;;
40675;SDS011;26359;48.750;9.314;2023-11-19T00:16:33;9.25;;;8.48;;
40675;SDS011;26359;48.750;9.314;2023-11-19T00:18:59;13.68;;;12.63;;
40675;SDS011;26359;48.750;9.314;2023-11-19T00:21:25;9.48;;;8.68;;
40675;SDS011;26359;48.750;9.314;2023-11-19T00:23:53;14.60;;;13.40;;
40675;SDS011;26359;48.750;9.314;2023-11-19T00:26:19;8.88;;;8.10;;
40675;SDS011;26359;48.750;9.314;2023-11-19T00:28:44;8.18;;;7.50;;
40675;SDS011;26359;48.750;9.314;2023-11-19T00:31:10;7.15;;;6.28;;
40675;SDS011;26359;48.750;9.314;2023-11-19T00:33:36;9.23;;;8.52;;
40675;SDS011;26359;48.750;9.314;2023-11-19T00:36:02;7.07;;;6.38;;
40675;SDS011;26359;48.750;9.314;2023-11-19T00:38:28;7.75;;;7.10;;
40675;SDS011;26359;48.750;9.314;2023-11-19T00:40:53;7.93;;;7.10;;
40675;SDS011;26359;48.750;9.314;2023-11-19T00:43:19;8.10;;;7.30;;
40675;SDS011;26359;48.750;9.314;2023-11-19T00:45:47;9.02;;;8.38;;
40675;SDS011;26359;48.750;9.314;2023-11-19T00:48:15;8.85;;;8.15;;
40675;SDS011;26359;48.750;9.314;2023-11-19T00:50:41;6.70;;;6.10;;
40675;SDS011;26359;48.750;9.314;2023-11-19T00:53:09;5.82;;;5.35;;
40675;SDS011;26359;48.750;9.314;2023-11-19T00:55:35;8.95;;;8.23;;
40675;SDS011;26359;48.750;9.314;2023-11-19T00:58:00;7.20;;;6.45;;
40675;SDS011;26359;48.750;9.314;2023-11-19T01:00:25;6.95;;;6.32;;
40675;SDS011;26359;48.750;9.314;2023-11-19T01:02:52;5.82;;;5.20;;
40675;SDS011;26359;48.750;9.314;2023-11-19T01:05:18;6.07;;;5.25;;
40675;SDS011;26359;48.750;9.314;2023-11-19T01:07:47;9.25;;;8.63;;
40675;SDS011;26359;48.750;9.314;2023-11-19T01:10:12;6.18;;;5.63;;
40675;SDS011;26359;48.750;9.314;2023-11-19T01:12:38;5.90;;;5.40;;
40675;SDS011;26359;48.750;9.314;2023-11-19T01:15:04;6.53;;;6.03;;
40675;SDS011;26359;48.750;9.314;2023-11-19T01:17:31;6.25;;;5.72;;
40675;SDS011;26359;48.750;9.314;2023-11-19T01:19:56;7.47;;;6.88;;
40675;SDS011;26359;48.750;9.314;2023-11-19T01:22:22;6.45;;;5.90;;
40675;SDS011;26359;48.750;9.314;2023-11-19T01:24:48;6.03;;;5.53;;
40675;SDS011;26359;48.750;9.314;2023-11-19T01:27:14;5.60;;;5.15;;
40675;SDS011;26359;48.750;9.314;2023-11-19T01:29:39;5.63;;;5.13;;
40675;SDS011;26359;48.750;9.314;2023-11-19T01:32:05;5.95;;;5.32;;
40675;SDS011;26359;48.750;9.314;2023-11-19T01:34:31;5.20;;;4.80;;
40675;SDS011;26359;48.750;9.314;2023-11-19T01:36:57;5.50;;;5.00;;
40675;SDS011;26359;48.750;9.314;2023-11-19T01:39:22;4.97;;;4.57;;
40675;SDS011;26359;48.750;9.314;2023-11-19T01:41:48;5.25;;;4.85;;
40675;SDS011;26359;48.750;9.314;2023-11-19T01:44:13;5.78;;;5.28;;
40675;SDS011;26359;48.750;9.314;2023-11-19T01:46:42;5.30;;;5.00;;
40675;SDS011;26359;48.750;9.314;2023-11-19T01:49:10;6.78;;;6.20;;
40675;SDS011;26359;48.750;9.314;2023-11-19T01:51:37;6.63;;;5.90;;
40675;SDS011;26359;48.750;9.314;2023-11-19T01:54:04;5.90;;;5.45;;
40675;SDS011;26359;48.750;9.314;2023-11-19T01:56:30;7.35;;;6.72;;
40675;SDS011;26359;48.750;9.314;2023-11-19T01:58:57;5.95;;;5.55;;
40675;SDS011;26359;48.750;9.314;2023-11-19T02:01:23;6.28;;;5.78;;
40675;SDS011;26359;48.750;9.314;2023-11-19T02:03:49;6.20;;;5.70;;
40675;SDS011;26359;48.750;9.314;2023-11-19T02:06:15;6.68;;;6.20;;
40675;SDS011;26359;48.750;9.314;2023-11-19T02:08:41;5.32;;;4.82;;
40675;SDS011;26359;48.750;9.314;2023-11-19T02:11:07;7.25;;;6.68;;
40675;SDS011;26359;48.750;9.314;2023-11-19T02:13:33;6.22;;;5.82;;
40675;SDS011;26359;48.750;9.314;2023-11-19T02:16:01;6.63;;;6.03;;
40675;SDS011;26359;48.750;9.314;2023-11-19T02:18:28;6.40;;;5.95;;
40675;SDS011;26359;48.750;9.314;2023-11-19T02:20:54;6.13;;;5.72;;
40675;SDS011;26359;48.750;9.314;2023-11-19T02:23:23;6.00;;;5.28;;
40675;SDS011;26359;48.750;9.314;2023-11-19T02:26:13;5.45;;;5.07;;
40675;SDS011;26359;48.750;9.314;2023-11-19T02:28:48;5.53;;;5.03;;
40675;SDS011;26359;48.750;9.314;2023-11-19T02:31:13;5.00;;;4.70;;
40675;SDS011;26359;48.750;9.314;2023-11-19T02:33:39;10.18;;;9.38;;
40675;SDS011;26359;48.750;9.314;2023-11-19T02:36:05;6.22;;;5.72;;
40675;SDS011;26359;48.750;9.314;2023-11-19T02:38:32;5.00;;;4.60;;
40675;SDS011;26359;48.750;9.314;2023-11-19T02:40:58;7.15;;;6.55;;
40675;SDS011;26359;48.750;9.314;2023-11-19T02:43:23;5.80;;;5.40;;
40675;SDS011;26359;48.750;9.314;2023-11-19T02:45:49;6.35;;;5.95;;
40675;SDS011;26359;48.750;9.314;2023-11-19T02:48:15;7.28;;;6.78;;
40675;SDS011;26359;48.750;9.314;2023-11-19T02:50:44;6.72;;;6.22;;
40675;SDS011;26359;48.750;9.314;2023-11-19T02:53:09;6.20;;;5.80;;
40675;SDS011;26359;48.750;9.314;2023-11-19T02:55:35;6.85;;;6.45;;
40675;SDS011;26359;48.750;9.314;2023-11-19T02:58:03;7.90;;;7.20;;
40675;SDS011;26359;48.750;9.314;2023-11-19T03:00:39;6.38;;;5.88;;
40675;SDS011;26359;48.750;9.314;2023-11-19T03:05:48;4.90;;;4.50;;
40675;SDS011;26359;48.750;9.314;2023-11-19T03:08:16;4.28;;;3.90;;
40675;SDS011;26359;48.750;9.314;2023-11-19T03:10:42;5.10;;;4.70;;
40675;SDS011;26359;48.750;9.314;2023-11-19T03:13:11;4.47;;;4.05;;
40675;SDS011;26359;48.750;9.314;2023-11-19T03:15:39;3.85;;;3.65;;
40675;SDS011;26359;48.750;9.314;2023-11-19T03:18:04;4.00;;;3.70;;
40675;SDS011;26359;48.750;9.314;2023-11-19T03:20:30;3.20;;;2.90;;
40675;SDS011;26359;48.750;9.314;2023-11-19T03:22:56;3.70;;;3.42;;
40675;SDS011;26359;48.750;9.314;2023-11-19T03:25:24;4.22;;;3.92;;
40675;SDS011;26359;48.750;9.314;2023-11-19T03:27:52;5.47;;;5.15;;
40675;SDS011;26359;48.750;9.314;2023-11-19T03:30:18;3.92;;;3.63;;
40675;SDS011;26359;48.750;9.314;2023-11-19T03:32:44;4.95;;;4.55;;
40675;SDS011;26359;48.750;9.314;2023-11-19T03:35:09;4.85;;;4.45;;
40675;SDS011;26359;48.750;9.314;2023-11-19T03:37:36;4.28;;;3.67;;
40675;SDS011;26359;48.750;9.314;2023-11-19T03:40:02;4.18;;;3.85;;
40675;SDS011;26359;48.750;9.314;2023-11-19T03:42:28;5.65;;;5.25;;
40675;SDS011;26359;48.750;9.314;2023-11-19T03:44:57;6.20;;;5.80;;
40675;SDS011;26359;48.750;9.314;2023-11-19T03:47:22;6.53;;;5.93;;
40675;SDS011;26359;48.750;9.314;2023-11-19T03:49:49;9.35;;;8.75;;
40675;SDS011;26359;48.750;9.314;2023-11-19T03:52:15;11.18;;;10.40;;
40675;SDS011;26359;48.750;9.314;2023-11-19T03:54:41;11.02;;;10.27;;
40675;SDS011;26359;48.750;9.314;2023-11-19T03:57:07;10.20;;;9.60;;
40675;SDS011;26359;48.750;9.314;2023-11-19T03:59:32;11.02;;;10.27;;
40675;SDS011;26359;48.750;9.314;2023-11-19T04:01:58;9.20;;;8.60;;
40675;SDS011;26359;48.750;9.314;2023-11-19T04:04:26;8.70;;;8.10;;
40675;SDS011;26359;48.750;9.314;2023-11-19T04:06:52;8.93;;;8.32;;
40675;SDS011;26359;48.750;9.314;2023-11-19T04:09:18;7.95;;;7.45;;
40675;SDS011;26359;48.750;9.314;2023-11-19T04:11:43;5.28;;;4.90;;
40675;SDS011;26359;48.750;9.314;2023-11-19T04:14:11;6.13;;;5.72;;
40675;SDS011;26359;48.750;9.314;2023-11-19T04:16:42;133.88;;;10.10;;
40675;SDS011;26359;48.750;9.314;2023-11-19T04:19:08;6.90;;;6.25;;
40675;SDS011;26359;48.750;9.314;2023-11-19T04:21:34;5.95;;;5.45;;
40675;SDS011;26359;48.750;9.314;2023-11-19T04:23:59;5.40;;;5.00;;
40675;SDS011;26359;48.750;9.314;2023-11-19T04:26:25;6.43;;;5.82;;
40675;SDS011;26359;48.750;9.314;2023-11-19T04:28:51;5.57;;;5.18;;
40675;SDS011;26359;48.750;9.314;2023-11-19T04:31:16;6.82;;;6.15;;
40675;SDS011;26359;48.750;9.314;2023-11-19T04:33:42;92.32;;;9.20;;
40675;SDS011;26359;48.750;9.314;2023-11-19T04:36:12;7.20;;;5.90;;
40675;SDS011;26359;48.750;9.314;2023-11-19T04:38:39;5.57;;;5.18;;
40675;SDS011;26359;48.750;9.314;2023-11-19T04:41:05;6.97;;;4.97;;
40675;SDS011;26359;48.750;9.314;2023-11-19T04:43:34;5.75;;;5.25;;
40675;SDS011;26359;48.750;9.314;2023-11-19T04:46:00;3.30;;;3.00;;
40675;SDS011;26359;48.750;9.314;2023-11-19T04:48:28;3.63;;;2.97;;
40675;SDS011;26359;48.750;9.314;2023-11-19T04:50:54;3.42;;;3.13;;
40675;SDS011;26359;48.750;9.314;2023-11-19T04:53:19;2.55;;;2.45;;
40675;SDS011;26359;48.750;9.314;2023-11-19T04:55:45;2.20;;;2.10;;
40675;SDS011;26359;48.750;9.314;2023-11-19T04:58:10;2.53;;;2.33;;
40675;SDS011;26359;48.750;9.314;2023-11-19T05:00:36;2.25;;;2.08;;
40675;SDS011;26359;48.750;9.314;2023-11-19T05:03:01;3.00;;;2.80;;
40675;SDS011;26359;48.750;9.314;2023-11-19T05:05:27;2.38;;;2.28;;
40675;SDS011;26359;48.750;9.314;2023-11-19T05:07:53;2.42;;;2.33;;
40675;SDS011;26359;48.750;9.314;2023-11-19T05:10:19;1.98;;;1.88;;
40675;SDS011;26359;48.750;9.314;2023-11-19T05:12:45;2.10;;;2.00;;
40675;SDS011;26359;48.750;9.314;2023-11-19T05:15:11;3.28;;;2.25;;
40675;SDS011;26359;48.750;9.314;2023-11-19T05:17:37;2.15;;;1.95;;
40675;SDS011;26359;48.750;9.314;2023-11-19T05:20:04;2.42;;;2.33;;
40675;SDS011;26359;48.750;9.314;2023-11-19T05:22:30;2.55;;;2.45;;
40675;SDS011;26359;48.750;9.314;2023-11-19T05:24:55;2.92;;;2.72;;
40675;SDS011;26359;48.750;9.314;2023-11-19T05:27:21;3.58;;;3.38;;
40675;SDS011;26359;48.750;9.314;2023-11-19T05:29:48;3.70;;;3.50;;
40675;SDS011;26359;48.750;9.314;2023-11-19T05:32:14;4.43;;;4.13;;
40675;SDS011;26359;48.750;9.314;2023-11-19T05:34:39;4.43;;;4.22;;
40675;SDS011;26359;48.750;9.314;2023-11-19T05:37:05;4.15;;;3.95;;
40675;SDS011;26359;48.750;9.314;2023-11-19T05:39:31;4.18;;;3.88;;
40675;SDS011;26359;48.750;9.314;2023-11-19T05:41:56;4.43;;;4.22;;
40675;SDS011;26359;48.750;9.314;2023-11-19T05:44:22;4.65;;;4.45;;
40675;SDS011;26359;48.750;9.314;2023-11-19T05:46:47;3.25;;;3.15;;
40675;SDS011;26359;48.750;9.314;2023-11-19T05:49:13;2.47;;;2.38;;
40675;SDS011;26359;48.750;9.314;2023-11-19T05:51:38;3.28;;;3.08;;
40675;SDS011;26359;48.750;9.314;2023-11-19T05:54:06;3.05;;;2.95;;
40675;SDS011;26359;48.750;9.314;2023-11-19T05:56:32;2.50;;;2.40;;
40675;SDS011;26359;48.750;9.314;2023-11-19T05:58:58;2.38;;;2.28;;
40675;SDS011;26359;48.750;9.314;2023-11-19T06:01:29;2.53;;;2.42;;
40675;SDS011;26359;48.750;9.314;2023-11-19T06:03:54;2.40;;;2.30;;
40675;SDS011;26359;48.750;9.314;2023-11-19T06:06:20;2.53;;;2.42;;
40675;SDS011;26359;48.750;9.314;2023-11-19T06:08:45;2.40;;;2.17;;
40675;SDS011;26359;48.750;9.314;2023-11-19T06:11:11;3.63;;;3.42;;
40675;SDS011;26359;48.750;9.314;2023-11-19T06:13:43;3.72;;;3.47;;
40675;SDS011;26359;48.750;9.314;2023-11-19T06:16:09;4.05;;;3.85;;
40675;SDS011;26359;48.750;9.314;2023-11-19T06:18:36;3.65;;;3.47;;
40675;SDS011;26359;48.750;9.314;2023-11-19T06:21:02;3.17;;;3.08;;
40675;SDS011;26359;48.750;9.314;2023-11-19T06:23:27;3.95;;;3.75;;
40675;SDS011;26359;48.750;9.314;2023-11-19T06:25:53;2.25;;;2.13;;
40675;SDS011;26359;48.750;9.314;2023-11-19T06:28:18;5.90;;;2.90;;
40675;SDS011;26359;48.750;9.314;2023-11-19T06:30:44;2.72;;;2.53;;
40675;SDS011;26359;48.750;9.314;2023-11-19T06:33:12;3.03;;;2.92;;
40675;SDS011;26359;48.750;9.314;2023-11-19T06:35:38;2.92;;;2.78;;
40675;SDS011;26359;48.750;9.314;2023-11-19T06:38:03;3.30;;;3.10;;
40675;SDS011;26359;48.750;9.314;2023-11-19T06:40:30;3.03;;;2.92;;
40675;SDS011;26359;48.750;9.314;2023-11-19T06:42:56;3.47;;;3.17;;
40675;SDS011;26359;48.750;9.314;2023-11-19T06:45:22;3.67;;;3.38;;
40675;SDS011;26359;48.750;9.314;2023-11-19T06:47:47;2.92;;;2.83;;
40675;SDS011;26359;48.750;9.314;2023-11-19T06:50:13;2.15;;;2.05;;
40675;SDS011;26359;48.750;9.314;2023-11-19T06:52:39;2.00;;;1.90;;
40675;SDS011;26359;48.750;9.314;2023-11-19T06:55:05;2.80;;;1.98;;
40675;SDS011;26359;48.750;9.314;2023-11-19T06:57:31;1.90;;;1.80;;
40675;SDS011;26359;48.750;9.314;2023-11-19T06:59:57;2.65;;;2.55;;
40675;SDS011;26359;48.750;9.314;2023-11-19T07:02:23;3.42;;;3.22;;
40675;SDS011;26359;48.750;9.314;2023-11-19T07:04:49;3.85;;;3.58;;
40675;SDS011;26359;48.750;9.314;2023-11-19T07:07:16;4.82;;;4.53;;
40675;SDS011;26359;48.750;9.314;2023-11-19T07:09:41;5.85;;;5.55;;
40675;SDS011;26359;48.750;9.314;2023-11-19T07:12:07;4.22;;;4.03;;
40675;SDS011;26359;48.750;9.314;2023-11-19T07:14:33;5.13;;;4.90;;
40675;SDS011;26359;48.750;9.314;2023-11-19T07:16:59;3.00;;;2.90;;
40675;SDS011;26359;48.750;9.314;2023-11-19T07:19:25;4.45;;;3.42;;
40675;SDS011;26359;48.750;9.314;2023-11-19T07:21:51;2.28;;;2.17;;
40675;SDS011;26359;48.750;9.314;2023-11-19T07:24:19;2.10;;;1.90;;
40675;SDS011;26359;48.750;9.314;2023-11-19T07:26:45;2.80;;;2.70;;
40675;SDS011;26359;48.750;9.314;2023-11-19T07:29:12;2.60;;;2.50;;
40675;SDS011;26359;48.750;9.314;2023-11-19T07:31:44;2.65;;;2.55;;
40675;SDS011;26359;48.750;9.314;2023-11-19T07:34:10;2.85;;;2.60;;
40675;SDS011;26359;48.750;9.314;2023-11-19T07:36:36;3.10;;;2.40;;
40675;SDS011;26359;48.750;9.314;2023-11-19T07:39:03;2.75;;;2.55;;
40675;SDS011;26359;48.750;9.314;2023-11-19T07:41:29;2.90;;;2.70;;
40675;SDS011;26359;48.750;9.314;2023-11-19T07:43:56;3.33;;;3.13;;
40675;SDS011;26359;48.750;9.314;2023-11-19T07:46:21;3.15;;;3.05;;
40675;SDS011;26359;48.750;9.314;2023-11-19T07:48:47;4.00;;;3.35;;
40675;SDS011;26359;48.750;9.314;2023-11-19T07:51:13;3.55;;;3.28;;
40675;SDS011;26359;48.750;9.314;2023-11-19T07:53:39;2.60;;;2.50;;
40675;SDS011;26359;48.750;9.314;2023-11-19T07:56:05;2.80;;;2.70;;
40675;SDS011;26359;48.750;9.314;2023-11-19T07:58:32;2.47;;;2.35;;
40675;SDS011;26359;48.750;9.314;2023-11-19T08:00:57;4.32;;;2.40;;
40675;SDS011;26359;48.750;9.314;2023-11-19T08:03:23;2.22;;;2.13;;
40675;SDS011;26359;48.750;9.314;2023-11-19T08:05:48;2.60;;;2.17;;
40675;SDS011;26359;48.750;9.314;2023-11-19T08:08:14;2.25;;;2.15;;
40675;SDS011;26359;48.750;9.314;2023-11-19T08:10:40;2.15;;;2.05;;
40675;SDS011;26359;48.750;9.314;2023-11-19T08:13:05;2.65;;;2.45;;
40675;SDS011;26359;48.750;9.314;2023-11-19T08:15:31;2.55;;;2.38;;
40675;SDS011;26359;48.750;9.314;2023-11-19T08:17:57;3.00;;;2.80;;
40675;SDS011;26359;48.750;9.314;2023-11-19T08:20:22;3.40;;;3.20;;
40675;SDS011;26359;48.750;9.314;2023-11-19T08:22:48;3.05;;;2.85;;
40675;SDS011;26359;48.750;9.314;2023-11-19T08:25:14;2.58;;;2.47;;
40675;SDS011;26359;48.750;9.314;2023-11-19T08:27:39;2.75;;;2.65;;
40675;SDS011;26359;48.750;9.314;2023-11-19T08:30:05;3.17;;;2.90;;
40675;SDS011;26359;48.750;9.314;2023-11-19T08:32:32;2.47;;;2.20;;
40675;SDS011;26359;48.750;9.314;2023-11-19T08:34:57;2.38;;;2.17;;
40675;SDS011;26359;48.750;9.314;2023-11-19T08:37:23;3.75;;;3.58;;
40675;SDS011;26359;48.750;9.314;2023-11-19T08:39:48;4.03;;;3.72;;
40675;SDS011;26359;48.750;9.314;2023-11-19T08:42:15;3.50;;;3.30;;
40675;SDS011;26359;48.750;9.314;2023-11-19T08:44:41;3.28;;;3.17;;
40675;SDS011;26359;48.750;9.314;2023-11-19T08:47:09;2.72;;;2.63;;
40675;SDS011;26359;48.750;9.314;2023-11-19T08:49:35;3.75;;;3.55;;
40675;SDS011;26359;48.750;9.314;2023-11-19T08:52:01;8.80;;;8.23;;
40675;SDS011;26359;48.750;9.314;2023-11-19T08:54:27;9.02;;;8.63;;
40675;SDS011;26359;48.750;9.314;2023-11-19T08:56:52;5.05;;;4.75;;
40675;SDS011;26359;48.750;9.314;2023-11-19T08:59:18;8.75;;;8.25;;
40675;SDS011;26359;48.750;9.314;2023-11-19T09:01:44;8.55;;;8.05;;
40675;SDS011;26359;48.750;9.314;2023-11-19T09:04:09;9.00;;;8.60;;
40675;SDS011;26359;48.750;9.314;2023-11-19T09:06:37;6.43;;;6.03;;
40675;SDS011;26359;48.750;9.314;2023-11-19T09:09:03;5.55;;;5.22;;
40675;SDS011;26359;48.750;9.314;2023-11-19T09:11:30;4.63;;;4.32;;
40675;SDS011;26359;48.750;9.314;2023-11-19T09:13:56;3.00;;;2.90;;
40675;SDS011;26359;48.750;9.314;2023-11-19T09:16:22;4.75;;;4.45;;
40675;SDS011;26359;48.750;9.314;2023-11-19T09:18:47;12.75;;;11.93;;
40675;SDS011;26359;48.750;9.314;2023-11-19T09:21:13;5.93;;;5.55;;
40675;SDS011;26359;48.750;9.314;2023-11-19T09:23:39;15.93;;;15.13;;
40675;SDS011;26359;48.750;9.314;2023-11-19T09:26:05;11.18;;;10.57;;
40675;SDS011;26359;48.750;9.314;2023-11-19T09:28:33;6.38;;;6.07;;
40675;SDS011;26359;48.750;9.314;2023-11-19T09:30:58;9.63;;;9.13;;
40675;SDS011;26359;48.750;9.314;2023-11-19T09:33:24;9.90;;;9.45;;
40675;SDS011;26359;48.750;9.314;2023-11-19T09:35:49;9.40;;;8.90;;
40675;SDS011;26359;48.750;9.314;2023-11-19T09:38:16;12.32;;;11.65;;
40675;SDS011;26359;48.750;9.314;2023-11-19T09:40:42;12.57;;;11.98;;
40675;SDS011;26359;48.750;9.314;2023-11-19T09:43:07;6.40;;;6.10;;
40675;SDS011;26359;48.750;9.314;2023-11-19T09:45:38;9.32;;;8.90;;
40675;SDS011;26359;48.750;9.314;2023-11-19T09:48:15;8.35;;;7.95;;
40675;SDS011;26359;48.750;9.314;2023-11-19T09:50:43;7.85;;;7.30;;
40675;SDS011;26359;48.750;9.314;2023-11-19T09:53:13;5.20;;;4.28;;
40675;SDS011;26359;48.750;9.314;2023-11-19T09:55:39;14.45;;;13.52;;
40675;SDS011;26359;48.750;9.314;2023-11-19T09:58:05;19.50;;;18.25;;
40675;SDS011;26359;48.750;9.314;2023-11-19T10:00:32;13.15;;;12.45;;
40675;SDS011;26359;48.750;9.314;2023-11-19T10:02:58;58.95;;;55.97;;
40675;SDS011;26359;48.750;9.314;2023-11-19T10:05:25;24.27;;;23.08;;
40675;SDS011;26359;48.750;9.314;2023-11-19T10:07:51;30.65;;;28.98;;
40675;SDS011;26359;48.750;9.314;2023-11-19T10:10:17;28.48;;;27.00;;
40675;SDS011;26359;48.750;9.314;2023-11-19T10:12:47;20.13;;;19.13;;
40675;SDS011;26359;48.750;9.314;2023-11-19T10:15:17;19.35;;;18.30;;
40675;SDS011;26359;48.750;9.314;2023-11-19T10:17:47;8.05;;;7.65;;
40675;SDS011;26359;48.750;9.314;2023-11-19T10:20:13;7.38;;;6.97;;
40675;SDS011;26359;48.750;9.314;2023-11-19T10:22:38;10.40;;;9.90;;
40675;SDS011;26359;48.750;9.314;2023-11-19T10:25:05;10.18;;;9.48;;
40675;SDS011;26359;48.750;9.314;2023-11-19T10:27:46;10.32;;;9.35;;
40675;SDS011;26359;48.750;9.314;2023-11-19T10:30:11;5.97;;;5.57;;
40675;SDS011;26359;48.750;9.314;2023-11-19T10:32:37;6.53;;;6.07;;
40675;SDS011;26359;48.750;9.314;2023-11-19T10:35:05;5.78;;;5.38;;
40675;SDS011;26359;48.750;9.314;2023-11-19T10:37:31;8.25;;;7.75;;
40675;SDS011;26359;48.750;9.314;2023-11-19T10:39:57;16.20;;;15.43;;
40675;SDS011;26359;48.750;9.314;2023-11-19T10:42:23;13.73;;;13.07;;
40675;SDS011;26359;48.750;9.314;2023-11-19T10:44:49;9.30;;;8.68;;
40675;SDS011;26359;48.750;9.314;2023-11-19T10:47:14;8.48;;;7.85;;
40675;SDS011;26359;48.750;9.314;2023-11-19T10:49:43;7.18;;;6.78;;
40675;SDS011;26359;48.750;9.314;2023-11-19T10:52:10;8.55;;;8.15;;
40675;SDS011;26359;48.750;9.314;2023-11-19T10:54:40;30.90;;;29.35;;
40675;SDS011;26359;48.750;9.314;2023-11-19T10:57:09;11.20;;;10.68;;
40675;SDS011;26359;48.750;9.314;2023-11-19T10:59:37;14.75;;;13.95;;
40675;SDS011;26359;48.750;9.314;2023-11-19T11:02:03;14.25;;;13.48;;
40675;SDS011;26359;48.750;9.314;2023-11-19T11:04:35;6.82;;;6.43;;
40675;SDS011;26359;48.750;9.314;2023-11-19T11:07:05;6.57;;;6.18;;
40675;SDS011;26359;48.750;9.314;2023-11-19T11:09:32;6.35;;;5.95;;
40675;SDS011;26359;48.750;9.314;2023-11-19T11:11:58;10.75;;;10.15;;
40675;SDS011;26359;48.750;9.314;2023-11-19T11:14:24;9.68;;;9.18;;
40675;SDS011;26359;48.750;9.314;2023-11-19T11:16:51;8.40;;;7.70;;
40675;SDS011;26359;48.750;9.314;2023-11-19T11:19:18;5.70;;;5.43;;
40675;SDS011;26359;48.750;9.314;2023-11-19T11:21:45;11.85;;;11.18;;
40675;SDS011;26359;48.750;9.314;2023-11-19T11:32:35;8.73;;;8.23;;
40675;SDS011;26359;48.750;9.314;2023-11-19T11:35:27;5.72;;;5.43;;
40675;SDS011;26359;48.750;9.314;2023-11-19T11:38:07;7.15;;;6.75;;
40675;SDS011;26359;48.750;9.314;2023-11-19T11:40:33;14.45;;;13.65;;
40675;SDS011;26359;48.750;9.314;2023-11-19T11:42:59;5.50;;;5.00;;
40675;SDS011;26359;48.750;9.314;2023-11-19T11:45:35;4.80;;;4.50;;
40675;SDS011;26359;48.750;9.314;2023-11-19T11:48:12;5.90;;;5.50;;
40675;SDS011;26359;48.750;9.314;2023-11-19T11:50:47;6.15;;;5.82;;
40675;SDS011;26359;48.750;9.314;2023-11-19T11:53:18;5.72;;;5.35;;
40675;SDS011;26359;48.750;9.314;2023-11-19T11:58:19;6.57;;;6.18;;
40675;SDS011;26359;48.750;9.314;2023-11-19T12:00:57;7.68;;;7.03;;
40675;SDS011;26359;48.750;9.314;2023-11-19T12:03:26;4.90;;;4.60;;
40675;SDS011;26359;48.750;9.314;2023-11-19T12:05:53;5.38;;;5.07;;
40675;SDS011;26359;48.750;9.314;2023-11-19T12:08:19;6.32;;;5.93;;
40675;SDS011;26359;48.750;9.314;2023-11-19T12:10:50;6.68;;;6.35;;
40675;SDS011;26359;48.750;9.314;2023-11-19T12:13:17;5.43;;;5.03;;
40675;SDS011;26359;48.750;9.314;2023-11-19T12:18:22;8.10;;;7.38;;
40675;SDS011;26359;48.750;9.314;2023-11-19T12:20:49;16.83;;;15.90;;
40675;SDS011;26359;48.750;9.314;2023-11-19T12:23:15;10.30;;;9.68;;
40675;SDS011;26359;48.750;9.314;2023-11-19T12:25:41;8.45;;;8.05;;
40675;SDS011;26359;48.750;9.314;2023-11-19T12:28:11;8.40;;;7.95;;
40675;SDS011;26359;48.750;9.314;2023-11-19T12:30:38;10.48;;;9.90;;
40675;SDS011;26359;48.750;9.314;2023-11-19T12:33:10;6.07;;;5.68;;
40675;SDS011;26359;48.750;9.314;2023-11-19T12:35:46;7.85;;;7.45;;
40675;SDS011;26359;48.750;9.314;2023-11-19T12:38:19;28.65;;;27.27;;
40675;SDS011;26359;48.750;9.314;2023-11-19T12:40:46;68.22;;;64.75;;
40675;SDS011;26359;48.750;9.314;2023-11-19T12:43:21;41.90;;;39.80;;
40675;SDS011;26359;48.750;9.314;2023-11-19T12:45:49;32.53;;;30.88;;
40675;SDS011;26359;48.750;9.314;2023-11-19T12:48:15;18.27;;;17.17;;
40675;SDS011;26359;48.750;9.314;2023-11-19T12:50:54;20.70;;;19.58;;
40675;SDS011;26359;48.750;9.314;2023-11-19T12:53:23;26.60;;;25.10;;
40675;SDS011;26359;48.750;9.314;2023-11-19T12:55:53;16.40;;;15.50;;
40675;SDS011;26359;48.750;9.314;2023-11-19T12:58:33;17.90;;;16.98;;
40675;SDS011;26359;48.750;9.314;2023-11-19T13:00:59;14.00;;;13.25;;
40675;SDS011;26359;48.750;9.314;2023-11-19T13:03:34;21.48;;;20.35;;
40675;SDS011;26359;48.750;9.314;2023-11-19T13:06:02;23.63;;;22.15;;
40675;SDS011;26359;48.750;9.314;2023-11-19T13:08:36;10.20;;;9.63;;
40675;SDS011;26359;48.750;9.314;2023-11-19T13:11:06;4.40;;;4.07;;
40675;SDS011;26359;48.750;9.314;2023-11-19T13:13:53;4.75;;;4.35;;
40675;SDS011;26359;48.750;9.314;2023-11-19T13:16:19;6.13;;;5.72;;
40675;SDS011;26359;48.750;9.314;2023-11-19T13:18:44;9.10;;;8.50;;
40675;SDS011;26359;48.750;9.314;2023-11-19T13:21:10;8.77;;;8.18;;
40675;SDS011;26359;48.750;9.314;2023-11-19T13:23:35;9.80;;;9.23;;
40675;SDS011;26359;48.750;9.314;2023-11-19T13:26:01;6.03;;;5.70;;
40675;SDS011;26359;48.750;9.314;2023-11-19T13:28:28;10.50;;;9.77;;
40675;SDS011;26359;48.750;9.314;2023-11-19T13:30:54;11.90;;;11.05;;
40675;SDS011;26359;48.750;9.314;2023-11-19T13:33:23;12.85;;;12.02;;
40675;SDS011;26359;48.750;9.314;2023-11-19T13:35:48;9.95;;;9.25;;
40675;SDS011;26359;48.750;9.314;2023-11-19T13:38:14;9.63;;;9.10;;
40675;SDS011;26359;48.750;9.314;2023-11-19T13:40:39;7.47;;;6.88;;
40675;SDS011;26359;48.750;9.314;2023-11-19T13:43:05;10.02;;;9.52;;
40675;SDS011;26359;48.750;9.314;2023-11-19T13:45:30;18.05;;;17.15;;
40675;SDS011;26359;48.750;9.314;2023-11-19T13:47:56;16.48;;;15.50;;
40675;SDS011;26359;48.750;9.314;2023-11-19T13:50:21;7.05;;;6.65;;
40675;SDS011;26359;48.750;9.314;2023-11-19T13:52:48;10.25;;;9.75;;
40675;SDS011;26359;48.750;9.314;2023-11-19T13:55:13;11.02;;;10.30;;
40675;SDS011;26359;48.750;9.314;2023-11-19T13:57:39;6.45;;;6.05;;
40675;SDS011;26359;48.750;9.314;2023-11-19T14:00:07;6.65;;;6.25;;
40675;SDS011;26359;48.750;9.314;2023-11-19T14:02:41;8.63;;;8.13;;
40675;SDS011;26359;48.750;9.314;2023-11-19T14:05:08;6.95;;;6.35;;
40675;SDS011;26359;48.750;9.314;2023-11-19T14:07:35;9.45;;;8.85;;
40675;SDS011;26359;48.750;9.314;2023-11-19T14:10:01;7.38;;;6.88;;
40675;SDS011;26359;48.750;9.314;2023-11-19T14:12:27;10.55;;;9.80;;
40675;SDS011;26359;48.750;9.314;2023-11-19T14:14:52;11.40;;;10.65;;
40675;SDS011;26359;48.750;9.314;2023-11-19T14:17:19;18.33;;;17.40;;
40675;SDS011;26359;48.750;9.314;2023-11-19T14:19:45;10.65;;;10.05;;
40675;SDS011;26359;48.750;9.314;2023-11-19T14:22:10;10.15;;;9.45;;
40675;SDS011;26359;48.750;9.314;2023-11-19T14:24:36;11.05;;;10.45;;
40675;SDS011;26359;48.750;9.314;2023-11-19T14:27:03;13.90;;;13.13;;
40675;SDS011;26359;48.750;9.314;2023-11-19T14:29:28;11.23;;;10.63;;
40675;SDS011;26359;48.750;9.314;2023-11-19T14:31:55;9.10;;;8.65;;
40675;SDS011;26359;48.750;9.314;2023-11-19T14:34:21;11.10;;;10.50;;
40675;SDS011;26359;48.750;9.314;2023-11-19T14:36:47;8.77;;;8.30;;
40675;SDS011;26359;48.750;9.314;2023-11-19T14:39:12;9.75;;;9.25;;
40675;SDS011;26359;48.750;9.314;2023-11-19T14:41:38;11.82;;;11.13;;
40675;SDS011;26359;48.750;9.314;2023-11-19T14:44:04;7.85;;;7.35;;
40675;SDS011;26359;48.750;9.314;2023-11-19T14:46:30;6.90;;;6.43;;
40675;SDS011;26359;48.750;9.314;2023-11-19T14:48:56;9.60;;;8.93;;
40675;SDS011;26359;48.750;9.314;2023-11-19T14:51:21;6.00;;;5.65;;
40675;SDS011;26359;48.750;9.314;2023-11-19T14:53:47;19.58;;;18.45;;
40675;SDS011;26359;48.750;9.314;2023-11-19T14:56:12;24.98;;;23.77;;
40675;SDS011;26359;48.750;9.314;2023-11-19T14:58:38;20.67;;;19.42;;